In Rescue
 
Open Full Screen Window  High Contrast Mode
Wind Gusting 21 knots
14
May 28, 2020 4:17 PM CDT
Weather Information
Wind Direction
  300 °
Wind Speed
  14 kt (16 mph)
Wind Gust
  21 kt (24 mph)
Altimeter
29.88 in
Visibility
10 SM
Temperature
26° C
79° F
Dewpoint
01° C
34° F
Humidity
20%
1hr Rain Fall
00.00 in.
24hr Rain Fall
00.03 in.
Sky Condition
Clear
VFR

METAR KSGS 282117Z AUTO 30014G21KT 10SM CLR 26/01 A2988 RMK AO2 T02550014

FAA Disclaimer: The data displayed is for advisory purposes only and is not to be used for flight planning or operations.